sensor_id;sensor_type;location;lat;lon;timestamp;pressure;altitude;pressure_sealevel;temperature;humidity
9521;BME280;4798;41.574;23.734;2023-03-19T00:00:32;95872.72;;;3.66;59.76
9521;BME280;4798;41.574;23.734;2023-03-19T00:03:00;95873.78;;;4.08;60.85
9521;BME280;4798;41.574;23.734;2023-03-19T00:05:30;95870.22;;;4.27;60.00
9521;BME280;4798;41.574;23.734;2023-03-19T00:07:58;95870.59;;;4.49;60.88
9521;BME280;4798;41.574;23.734;2023-03-19T00:10:27;95867.44;;;4.22;60.33
9521;BME280;4798;41.574;23.734;2023-03-19T00:12:55;95872.00;;;4.70;60.73
9521;BME280;4798;41.574;23.734;2023-03-19T00:15:23;95876.06;;;4.84;59.44
9521;BME280;4798;41.574;23.734;2023-03-19T00:17:52;95868.41;;;4.82;59.89
9521;BME280;4798;41.574;23.734;2023-03-19T00:20:22;95869.78;;;5.03;62.41
9521;BME280;4798;41.574;23.734;2023-03-19T00:22:52;95851.97;;;5.05;64.11
9521;BME280;4798;41.574;23.734;2023-03-19T00:25:20;95859.44;;;4.11;58.02
9521;BME280;4798;41.574;23.734;2023-03-19T00:27:48;95841.06;;;3.37;59.73
9521;BME280;4798;41.574;23.734;2023-03-19T00:30:18;95833.00;;;3.88;65.09
9521;BME280;4798;41.574;23.734;2023-03-19T00:32:47;95846.56;;;4.09;61.78
9521;BME280;4798;41.574;23.734;2023-03-19T00:35:15;95841.28;;;4.34;60.14
9521;BME280;4798;41.574;23.734;2023-03-19T00:37:43;95844.50;;;4.54;62.69
9521;BME280;4798;41.574;23.734;2023-03-19T00:40:13;95835.50;;;4.80;63.36
9521;BME280;4798;41.574;23.734;2023-03-19T00:42:42;95830.88;;;4.93;61.78
9521;BME280;4798;41.574;23.734;2023-03-19T00:45:11;95826.53;;;5.17;61.93
9521;BME280;4798;41.574;23.734;2023-03-19T00:47:40;95829.88;;;5.24;64.75
9521;BME280;4798;41.574;23.734;2023-03-19T00:50:09;95809.13;;;5.04;59.47
9521;BME280;4798;41.574;23.734;2023-03-19T00:52:38;95834.72;;;4.43;56.99
9521;BME280;4798;41.574;23.734;2023-03-19T00:55:07;95822.66;;;4.35;58.59
9521;BME280;4798;41.574;23.734;2023-03-19T00:57:37;95833.19;;;4.54;58.24
9521;BME280;4798;41.574;23.734;2023-03-19T01:00:06;95829.44;;;4.07;58.74
9521;BME280;4798;41.574;23.734;2023-03-19T01:02:36;95825.63;;;4.03;58.87
9521;BME280;4798;41.574;23.734;2023-03-19T01:05:05;95823.03;;;4.21;57.70
9521;BME280;4798;41.574;23.734;2023-03-19T01:07:34;95819.94;;;4.06;58.50
9521;BME280;4798;41.574;23.734;2023-03-19T01:10:03;95818.38;;;4.77;61.06
9521;BME280;4798;41.574;23.734;2023-03-19T01:12:32;95815.41;;;5.03;59.13
9521;BME280;4798;41.574;23.734;2023-03-19T01:15:03;95807.66;;;5.08;60.38
9521;BME280;4798;41.574;23.734;2023-03-19T01:17:32;95811.94;;;4.91;58.44
9521;BME280;4798;41.574;23.734;2023-03-19T01:20:01;95806.09;;;4.89;58.76
9521;BME280;4798;41.574;23.734;2023-03-19T01:22:30;95804.13;;;5.03;59.27
9521;BME280;4798;41.574;23.734;2023-03-19T01:25:01;95797.44;;;5.19;58.37
9521;BME280;4798;41.574;23.734;2023-03-19T01:27:29;95791.44;;;5.11;56.89
9521;BME280;4798;41.574;23.734;2023-03-19T01:29:58;95793.13;;;5.06;56.39
9521;BME280;4798;41.574;23.734;2023-03-19T01:32:28;95783.16;;;4.96;56.23
9521;BME280;4798;41.574;23.734;2023-03-19T01:34:57;95689.94;;;4.46;55.67
9521;BME280;4798;41.574;23.734;2023-03-19T01:37:25;95796.97;;;5.22;56.68
9521;BME280;4798;41.574;23.734;2023-03-19T01:39:54;95793.56;;;5.21;55.70
9521;BME280;4798;41.574;23.734;2023-03-19T01:42:22;95800.66;;;4.73;55.88
9521;BME280;4798;41.574;23.734;2023-03-19T01:44:50;95789.81;;;4.99;56.03
9521;BME280;4798;41.574;23.734;2023-03-19T01:47:26;95780.91;;;4.52;56.21
9521;BME280;4798;41.574;23.734;2023-03-19T01:49:58;95808.28;;;3.77;58.35
9521;BME280;4798;41.574;23.734;2023-03-19T01:52:29;95798.53;;;4.09;58.50
9521;BME280;4798;41.574;23.734;2023-03-19T01:55:00;95805.84;;;2.95;59.96
9521;BME280;4798;41.574;23.734;2023-03-19T01:57:30;95808.03;;;2.53;61.26
9521;BME280;4798;41.574;23.734;2023-03-19T02:00:01;95815.56;;;2.88;61.46
9521;BME280;4798;41.574;23.734;2023-03-19T02:02:32;95809.75;;;3.48;59.99
9521;BME280;4798;41.574;23.734;2023-03-19T02:05:05;95813.03;;;3.37;59.76
9521;BME280;4798;41.574;23.734;2023-03-19T02:07:36;95817.25;;;2.69;61.50
9521;BME280;4798;41.574;23.734;2023-03-19T02:10:07;95830.22;;;2.44;62.16
9521;BME280;4798;41.574;23.734;2023-03-19T02:12:37;95832.44;;;2.47;62.98
9521;BME280;4798;41.574;23.734;2023-03-19T02:15:06;95821.25;;;3.16;60.97
9521;BME280;4798;41.574;23.734;2023-03-19T02:17:35;95828.19;;;3.84;58.94
9521;BME280;4798;41.574;23.734;2023-03-19T02:20:07;95791.41;;;4.16;57.74
9521;BME280;4798;41.574;23.734;2023-03-19T02:22:42;95826.00;;;4.06;57.99
9521;BME280;4798;41.574;23.734;2023-03-19T02:25:19;95825.69;;;3.96;57.84
9521;BME280;4798;41.574;23.734;2023-03-19T02:27:50;95830.44;;;4.06;57.86
9521;BME280;4798;41.574;23.734;2023-03-19T02:30:21;95827.31;;;3.97;58.39
9521;BME280;4798;41.574;23.734;2023-03-19T02:32:50;95824.88;;;3.96;58.06
9521;BME280;4798;41.574;23.734;2023-03-19T02:35:18;95832.38;;;4.17;57.71
9521;BME280;4798;41.574;23.734;2023-03-19T02:37:47;95753.75;;;3.67;58.93
9521;BME280;4798;41.574;23.734;2023-03-19T02:40:18;95836.25;;;4.32;58.88
9521;BME280;4798;41.574;23.734;2023-03-19T02:42:50;95823.03;;;4.21;57.55
9521;BME280;4798;41.574;23.734;2023-03-19T02:45:19;95832.38;;;4.17;57.80
9521;BME280;4798;41.574;23.734;2023-03-19T02:47:47;95835.13;;;4.22;57.68
9521;BME280;4798;41.574;23.734;2023-03-19T02:50:15;95837.19;;;4.20;57.42
9521;BME280;4798;41.574;23.734;2023-03-19T02:52:44;95831.84;;;4.26;56.94
9521;BME280;4798;41.574;23.734;2023-03-19T02:55:12;95833.94;;;4.18;57.76
9521;BME280;4798;41.574;23.734;2023-03-19T02:57:40;95827.81;;;4.06;58.08
9521;BME280;4798;41.574;23.734;2023-03-19T03:00:11;95808.28;;;4.02;57.68
9521;BME280;4798;41.574;23.734;2023-03-19T03:02:40;95829.50;;;4.18;57.60
9521;BME280;4798;41.574;23.734;2023-03-19T03:05:08;95791.22;;;3.93;57.83
9521;BME280;4798;41.574;23.734;2023-03-19T03:07:36;95802.19;;;2.65;59.79
9521;BME280;4798;41.574;23.734;2023-03-19T03:10:06;95842.63;;;3.13;59.98
9521;BME280;4798;41.574;23.734;2023-03-19T03:12:35;95845.59;;;3.23;59.84
9521;BME280;4798;41.574;23.734;2023-03-19T03:15:05;95834.41;;;3.34;59.16
9521;BME280;4798;41.574;23.734;2023-03-19T03:17:37;95841.53;;;3.58;58.71
9521;BME280;4798;41.574;23.734;2023-03-19T03:20:07;95844.41;;;3.50;58.82
9521;BME280;4798;41.574;23.734;2023-03-19T03:22:37;95826.09;;;3.12;59.37
9521;BME280;4798;41.574;23.734;2023-03-19T03:25:06;95848.25;;;3.72;58.40
9521;BME280;4798;41.574;23.734;2023-03-19T03:27:36;95871.84;;;3.72;58.63
9521;BME280;4798;41.574;23.734;2023-03-19T03:30:06;95851.47;;;3.74;58.45
9521;BME280;4798;41.574;23.734;2023-03-19T03:32:37;95858.66;;;3.85;58.59
9521;BME280;4798;41.574;23.734;2023-03-19T03:35:07;95849.22;;;4.03;58.64
9521;BME280;4798;41.574;23.734;2023-03-19T03:37:35;95809.41;;;3.88;58.73
9521;BME280;4798;41.574;23.734;2023-03-19T03:40:05;95844.28;;;4.13;59.60
9521;BME280;4798;41.574;23.734;2023-03-19T03:42:34;95845.47;;;4.17;60.44
9521;BME280;4798;41.574;23.734;2023-03-19T03:45:04;95848.69;;;4.19;60.10
9521;BME280;4798;41.574;23.734;2023-03-19T03:47:33;95841.81;;;4.18;61.10
9521;BME280;4798;41.574;23.734;2023-03-19T03:50:03;95839.81;;;4.20;61.52
9521;BME280;4798;41.574;23.734;2023-03-19T03:52:32;95815.59;;;4.00;63.59
9521;BME280;4798;41.574;23.734;2023-03-19T03:55:00;95840.25;;;4.35;62.50
9521;BME280;4798;41.574;23.734;2023-03-19T03:57:29;95842.22;;;4.39;60.03
9521;BME280;4798;41.574;23.734;2023-03-19T03:59:57;95845.44;;;4.41;59.17
9521;BME280;4798;41.574;23.734;2023-03-19T04:02:25;95846.38;;;4.29;58.11
9521;BME280;4798;41.574;23.734;2023-03-19T04:04:54;95853.34;;;4.17;59.29
9521;BME280;4798;41.574;23.734;2023-03-19T04:07:24;95853.53;;;3.41;59.32
9521;BME280;4798;41.574;23.734;2023-03-19T04:09:52;95862.34;;;3.78;58.77
9521;BME280;4798;41.574;23.734;2023-03-19T04:12:21;95870.34;;;3.58;59.58
9521;BME280;4798;41.574;23.734;2023-03-19T04:14:49;95872.84;;;2.65;61.60
9521;BME280;4798;41.574;23.734;2023-03-19T04:17:18;95888.81;;;2.24;64.24
9521;BME280;4798;41.574;23.734;2023-03-19T04:19:46;95894.66;;;1.67;64.52
9521;BME280;4798;41.574;23.734;2023-03-19T04:22:14;95892.66;;;1.69;64.75
9521;BME280;4798;41.574;23.734;2023-03-19T04:24:44;95874.16;;;1.51;65.34
9521;BME280;4798;41.574;23.734;2023-03-19T04:27:12;95901.19;;;2.74;62.70
9521;BME280;4798;41.574;23.734;2023-03-19T04:29:41;95904.94;;;2.14;63.39
9521;BME280;4798;41.574;23.734;2023-03-19T04:32:09;95886.75;;;2.52;62.14
9521;BME280;4798;41.574;23.734;2023-03-19T04:34:37;95880.00;;;1.92;63.35
9521;BME280;4798;41.574;23.734;2023-03-19T04:37:07;95905.84;;;1.35;65.21
9521;BME280;4798;41.574;23.734;2023-03-19T04:39:36;95927.06;;;1.92;65.26
9521;BME280;4798;41.574;23.734;2023-03-19T04:42:06;95927.25;;;2.30;64.21
9521;BME280;4798;41.574;23.734;2023-03-19T04:44:35;95923.19;;;2.47;63.55
9521;BME280;4798;41.574;23.734;2023-03-19T04:47:03;95811.25;;;1.78;63.50
9521;BME280;4798;41.574;23.734;2023-03-19T04:49:38;95927.38;;;2.61;62.88
9521;BME280;4798;41.574;23.734;2023-03-19T04:52:07;95929.22;;;2.61;62.96
9521;BME280;4798;41.574;23.734;2023-03-19T04:54:36;95935.63;;;2.65;62.65
9521;BME280;4798;41.574;23.734;2023-03-19T04:57:06;95941.84;;;2.77;62.15
9521;BME280;4798;41.574;23.734;2023-03-19T04:59:37;95934.66;;;3.23;63.77
9521;BME280;4798;41.574;23.734;2023-03-19T05:02:05;95929.59;;;3.59;65.64
9521;BME280;4798;41.574;23.734;2023-03-19T05:04:34;95931.72;;;3.75;64.32
9521;BME280;4798;41.574;23.734;2023-03-19T05:07:03;95933.47;;;3.88;62.34
9521;BME280;4798;41.574;23.734;2023-03-19T05:09:31;95934.69;;;3.85;60.91
9521;BME280;4798;41.574;23.734;2023-03-19T05:11:59;95933.97;;;4.03;61.57
9521;BME280;4798;41.574;23.734;2023-03-19T05:14:29;95937.34;;;4.10;60.12
9521;BME280;4798;41.574;23.734;2023-03-19T05:16:57;95937.72;;;3.89;59.71
9521;BME280;4798;41.574;23.734;2023-03-19T05:19:26;95850.81;;;3.23;59.86
9521;BME280;4798;41.574;23.734;2023-03-19T05:21:54;95937.28;;;3.61;60.83
9521;BME280;4798;41.574;23.734;2023-03-19T05:24:24;95935.63;;;3.66;60.32
9521;BME280;4798;41.574;23.734;2023-03-19T05:26:53;95929.44;;;3.85;59.57
9521;BME280;4798;41.574;23.734;2023-03-19T05:29:22;95935.28;;;3.56;60.62
9521;BME280;4798;41.574;23.734;2023-03-19T05:31:51;95934.84;;;3.59;60.50
9521;BME280;4798;41.574;23.734;2023-03-19T05:34:20;95935.69;;;3.09;62.13
9521;BME280;4798;41.574;23.734;2023-03-19T05:36:48;95935.72;;;3.02;62.96
9521;BME280;4798;41.574;23.734;2023-03-19T05:39:17;95873.19;;;2.75;62.97
9521;BME280;4798;41.574;23.734;2023-03-19T05:41:46;95930.72;;;3.01;62.65
9521;BME280;4798;41.574;23.734;2023-03-19T05:44:15;95934.72;;;2.97;62.83
9521;BME280;4798;41.574;23.734;2023-03-19T05:46:43;95941.47;;;2.53;63.38
9521;BME280;4798;41.574;23.734;2023-03-19T05:49:14;95856.47;;;1.72;65.04
9521;BME280;4798;41.574;23.734;2023-03-19T05:51:42;95943.81;;;3.01;64.17
9521;BME280;4798;41.574;23.734;2023-03-19T05:54:10;95941.44;;;2.80;64.34
9521;BME280;4798;41.574;23.734;2023-03-19T05:56:39;95912.25;;;2.83;64.13
9521;BME280;4798;41.574;23.734;2023-03-19T05:59:07;95928.25;;;3.50;62.63
9521;BME280;4798;41.574;23.734;2023-03-19T06:01:36;95943.91;;;3.26;63.07
9521;BME280;4798;41.574;23.734;2023-03-19T06:04:04;95953.66;;;3.50;63.35
9521;BME280;4798;41.574;23.734;2023-03-19T06:06:34;95949.53;;;3.98;62.99
9521;BME280;4798;41.574;23.734;2023-03-19T06:09:03;95933.81;;;5.38;65.98
9521;BME280;4798;41.574;23.734;2023-03-19T06:11:34;95945.53;;;6.13;55.38
9521;BME280;4798;41.574;23.734;2023-03-19T06:14:05;95864.16;;;5.89;54.25
9521;BME280;4798;41.574;23.734;2023-03-19T06:16:37;95917.19;;;6.85;52.76
9521;BME280;4798;41.574;23.734;2023-03-19T06:19:09;95866.78;;;6.93;51.16
9521;BME280;4798;41.574;23.734;2023-03-19T06:21:39;95938.22;;;7.88;50.20
9521;BME280;4798;41.574;23.734;2023-03-19T06:24:07;95939.28;;;7.87;50.20
9521;BME280;4798;41.574;23.734;2023-03-19T06:26:36;95940.28;;;7.86;49.98
9521;BME280;4798;41.574;23.734;2023-03-19T06:29:04;95946.56;;;8.41;48.77
9521;BME280;4798;41.574;23.734;2023-03-19T06:31:33;95934.00;;;8.03;49.46
9521;BME280;4798;41.574;23.734;2023-03-19T06:34:02;95944.72;;;7.97;49.99
9521;BME280;4798;41.574;23.734;2023-03-19T06:36:30;95952.31;;;8.55;50.63
9521;BME280;4798;41.574;23.734;2023-03-19T06:39:00;95949.28;;;8.01;51.04
9521;BME280;4798;41.574;23.734;2023-03-19T06:41:29;95951.97;;;7.61;52.12
9521;BME280;4798;41.574;23.734;2023-03-19T06:43:57;95952.78;;;8.68;50.94
9521;BME280;4798;41.574;23.734;2023-03-19T06:46:25;95951.47;;;9.69;49.92
9521;BME280;4798;41.574;23.734;2023-03-19T06:48:54;95949.09;;;9.94;48.21
9521;BME280;4798;41.574;23.734;2023-03-19T06:51:22;95946.91;;;9.86;47.64
9521;BME280;4798;41.574;23.734;2023-03-19T06:53:53;95947.91;;;10.07;47.12
9521;BME280;4798;41.574;23.734;2023-03-19T06:56:23;95941.88;;;10.38;47.75
9521;BME280;4798;41.574;23.734;2023-03-19T06:58:52;95944.72;;;10.63;47.34
9521;BME280;4798;41.574;23.734;2023-03-19T07:01:20;95939.75;;;11.14;45.39
9521;BME280;4798;41.574;23.734;2023-03-19T07:03:49;95934.13;;;11.05;44.93
9521;BME280;4798;41.574;23.734;2023-03-19T07:06:17;95942.66;;;11.12;44.77
9521;BME280;4798;41.574;23.734;2023-03-19T07:08:45;95933.00;;;10.96;45.24
9521;BME280;4798;41.574;23.734;2023-03-19T07:11:14;95923.00;;;11.65;43.57
9521;BME280;4798;41.574;23.734;2023-03-19T07:13:44;95921.47;;;11.84;43.33
9521;BME280;4798;41.574;23.734;2023-03-19T07:16:15;95923.63;;;11.92;43.30
9521;BME280;4798;41.574;23.734;2023-03-19T07:18:43;95916.97;;;11.85;43.60
9521;BME280;4798;41.574;23.734;2023-03-19T07:21:12;95917.31;;;12.34;42.36
9521;BME280;4798;41.574;23.734;2023-03-19T07:23:40;95895.72;;;12.96;41.95
9521;BME280;4798;41.574;23.734;2023-03-19T07:26:08;95910.16;;;12.49;41.82
9521;BME280;4798;41.574;23.734;2023-03-19T07:28:37;95907.97;;;12.87;41.21
9521;BME280;4798;41.574;23.734;2023-03-19T07:31:07;95892.69;;;13.43;40.41
9521;BME280;4798;41.574;23.734;2023-03-19T07:33:35;95907.63;;;13.23;40.00
9521;BME280;4798;41.574;23.734;2023-03-19T07:36:04;95888.13;;;13.48;40.41
9521;BME280;4798;41.574;23.734;2023-03-19T07:38:33;95904.34;;;14.78;39.94
9521;BME280;4798;41.574;23.734;2023-03-19T07:41:01;95895.69;;;15.39;38.32
9521;BME280;4798;41.574;23.734;2023-03-19T07:43:30;95848.88;;;14.08;38.71
9521;BME280;4798;41.574;23.734;2023-03-19T07:45:58;95886.28;;;14.65;37.84
9521;BME280;4798;41.574;23.734;2023-03-19T07:48:28;95889.06;;;15.12;36.84
9521;BME280;4798;41.574;23.734;2023-03-19T07:50:57;95858.75;;;15.46;36.71
9521;BME280;4798;41.574;23.734;2023-03-19T07:53:25;95879.06;;;16.08;36.20
9521;BME280;4798;41.574;23.734;2023-03-19T07:55:54;95872.34;;;16.42;37.45
9521;BME280;4798;41.574;23.734;2023-03-19T07:58:22;95875.44;;;15.80;38.60
9521;BME280;4798;41.574;23.734;2023-03-19T08:00:51;95871.34;;;16.38;36.67
9521;BME280;4798;41.574;23.734;2023-03-19T08:03:20;95870.63;;;16.84;35.31
9521;BME280;4798;41.574;23.734;2023-03-19T08:05:50;95871.34;;;17.44;34.35
9521;BME280;4798;41.574;23.734;2023-03-19T08:08:19;95853.47;;;18.52;33.49
9521;BME280;4798;41.574;23.734;2023-03-19T08:10:47;95867.25;;;18.23;33.59
9521;BME280;4798;41.574;23.734;2023-03-19T08:13:16;95862.38;;;17.89;33.46
9521;BME280;4798;41.574;23.734;2023-03-19T08:15:45;95864.81;;;17.23;33.78
9521;BME280;4798;41.574;23.734;2023-03-19T08:18:13;95868.78;;;17.25;33.93
9521;BME280;4798;41.574;23.734;2023-03-19T08:20:43;95862.19;;;16.77;33.49
9521;BME280;4798;41.574;23.734;2023-03-19T08:23:13;95860.75;;;18.02;32.81
9521;BME280;4798;41.574;23.734;2023-03-19T08:25:41;95864.22;;;17.66;32.37
9521;BME280;4798;41.574;23.734;2023-03-19T08:28:09;95851.97;;;18.68;31.64
9521;BME280;4798;41.574;23.734;2023-03-19T08:30:38;95855.75;;;19.28;31.10
9521;BME280;4798;41.574;23.734;2023-03-19T08:33:07;95852.22;;;19.50;31.21
9521;BME280;4798;41.574;23.734;2023-03-19T08:35:35;95847.19;;;19.26;30.74
9521;BME280;4798;41.574;23.734;2023-03-19T08:38:04;95832.97;;;20.16;30.83
9521;BME280;4798;41.574;23.734;2023-03-19T08:40:34;95847.72;;;20.45;30.11
9521;BME280;4798;41.574;23.734;2023-03-19T08:43:02;95841.75;;;20.31;29.90
9521;BME280;4798;41.574;23.734;2023-03-19T08:45:31;95842.06;;;19.08;31.16
9521;BME280;4798;41.574;23.734;2023-03-19T08:47:59;95817.38;;;18.66;31.94
9521;BME280;4798;41.574;23.734;2023-03-19T08:50:28;95831.41;;;19.90;30.52
9521;BME280;4798;41.574;23.734;2023-03-19T08:52:56;95834.28;;;20.27;29.48
9521;BME280;4798;41.574;23.734;2023-03-19T08:55:25;95827.94;;;20.41;29.50
9521;BME280;4798;41.574;23.734;2023-03-19T08:57:54;95824.94;;;20.25;29.92
9521;BME280;4798;41.574;23.734;2023-03-19T09:00:23;95818.69;;;20.76;29.34
9521;BME280;4798;41.574;23.734;2023-03-19T09:02:51;95830.84;;;19.53;29.70
9521;BME280;4798;41.574;23.734;2023-03-19T09:05:20;95822.53;;;19.72;31.30
9521;BME280;4798;41.574;23.734;2023-03-19T09:07:50;95815.56;;;19.97;29.97
9521;BME280;4798;41.574;23.734;2023-03-19T09:10:19;95816.22;;;21.46;29.17
9521;BME280;4798;41.574;23.734;2023-03-19T09:12:47;95801.47;;;21.15;28.84
9521;BME280;4798;41.574;23.734;2023-03-19T09:15:17;95812.25;;;20.00;31.09
9521;BME280;4798;41.574;23.734;2023-03-19T09:17:45;95800.69;;;20.42;30.19
9521;BME280;4798;41.574;23.734;2023-03-19T09:20:14;95804.34;;;21.39;30.14
9521;BME280;4798;41.574;23.734;2023-03-19T09:22:42;95798.03;;;20.97;30.05
9521;BME280;4798;41.574;23.734;2023-03-19T09:25:10;95786.41;;;21.14;29.71
9521;BME280;4798;41.574;23.734;2023-03-19T09:27:39;95785.94;;;21.12;29.78
9521;BME280;4798;41.574;23.734;2023-03-19T09:30:08;95772.34;;;21.79;30.13
9521;BME280;4798;41.574;23.734;2023-03-19T09:32:38;95779.47;;;22.57;29.72
9521;BME280;4798;41.574;23.734;2023-03-19T09:35:07;95777.31;;;21.77;30.74
9521;BME280;4798;41.574;23.734;2023-03-19T09:37:36;95769.00;;;21.82;29.55
9521;BME280;4798;41.574;23.734;2023-03-19T09:40:06;95757.66;;;23.83;28.67
9521;BME280;4798;41.574;23.734;2023-03-19T09:42:47;95747.84;;;24.31;27.86
9521;BME280;4798;41.574;23.734;2023-03-19T09:45:20;95747.72;;;22.99;28.61
9521;BME280;4798;41.574;23.734;2023-03-19T09:47:54;95739.81;;;22.49;28.83
9521;BME280;4798;41.574;23.734;2023-03-19T09:50:25;95742.75;;;22.89;28.39
9521;BME280;4798;41.574;23.734;2023-03-19T09:52:59;95741.50;;;22.87;29.93
9521;BME280;4798;41.574;23.734;2023-03-19T09:55:39;95736.53;;;23.13;29.93
9521;BME280;4798;41.574;23.734;2023-03-19T09:58:12;95726.06;;;22.87;30.11
9521;BME280;4798;41.574;23.734;2023-03-19T10:00:43;95720.78;;;22.79;29.36
9521;BME280;4798;41.574;23.734;2023-03-19T10:03:26;95719.66;;;23.52;29.50
9521;BME280;4798;41.574;23.734;2023-03-19T10:06:09;95709.72;;;23.32;28.63
9521;BME280;4798;41.574;23.734;2023-03-19T10:09:03;95712.75;;;24.50;28.36
9521;BME280;4798;41.574;23.734;2023-03-19T10:11:47;95710.25;;;24.29;27.99
9521;BME280;4798;41.574;23.734;2023-03-19T10:15:00;95701.84;;;23.27;29.31
9521;BME280;4798;41.574;23.734;2023-03-19T10:17:33;95668.53;;;22.87;29.57
9521;BME280;4798;41.574;23.734;2023-03-19T10:20:05;95682.16;;;23.14;30.07
9521;BME280;4798;41.574;23.734;2023-03-19T10:22:37;95687.66;;;22.94;29.35
9521;BME280;4798;41.574;23.734;2023-03-19T10:25:10;95680.25;;;24.81;29.00
9521;BME280;4798;41.574;23.734;2023-03-19T10:27:39;95676.81;;;22.57;29.87
9521;BME280;4798;41.574;23.734;2023-03-19T10:30:13;95642.97;;;24.16;28.23
9521;BME280;4798;41.574;23.734;2023-03-19T10:32:43;95663.78;;;25.40;26.79
9521;BME280;4798;41.574;23.734;2023-03-19T10:35:18;95651.66;;;24.99;27.16
9521;BME280;4798;41.574;23.734;2023-03-19T10:37:49;95647.63;;;26.20;25.75
9521;BME280;4798;41.574;23.734;2023-03-19T10:40:21;95634.69;;;25.21;26.34
9521;BME280;4798;41.574;23.734;2023-03-19T10:43:05;95634.41;;;25.80;26.14
9521;BME280;4798;41.574;23.734;2023-03-19T10:45:35;95630.47;;;27.10;25.69
9521;BME280;4798;41.574;23.734;2023-03-19T10:48:05;95623.94;;;26.89;25.09
9521;BME280;4798;41.574;23.734;2023-03-19T10:50:48;95625.72;;;26.78;25.53
9521;BME280;4798;41.574;23.734;2023-03-19T10:53:30;95611.81;;;28.35;25.34
9521;BME280;4798;41.574;23.734;2023-03-19T10:56:01;95607.97;;;26.87;24.91
9521;BME280;4798;41.574;23.734;2023-03-19T10:58:33;95608.69;;;24.08;26.86
9521;BME280;4798;41.574;23.734;2023-03-19T11:01:04;95607.72;;;25.29;27.26
9521;BME280;4798;41.574;23.734;2023-03-19T11:03:35;95590.75;;;25.70;26.95
9521;BME280;4798;41.574;23.734;2023-03-19T11:06:15;95562.97;;;26.18;27.02
9521;BME280;4798;41.574;23.734;2023-03-19T11:08:52;95583.06;;;24.99;27.38
9521;BME280;4798;41.574;23.734;2023-03-19T11:11:23;95583.44;;;25.16;26.89
9521;BME280;4798;41.574;23.734;2023-03-19T11:13:52;95569.34;;;25.11;28.32
9521;BME280;4798;41.574;23.734;2023-03-19T11:16:20;95569.03;;;25.32;26.22
9521;BME280;4798;41.574;23.734;2023-03-19T11:18:49;95567.28;;;24.23;27.00
9521;BME280;4798;41.574;23.734;2023-03-19T11:21:24;95562.06;;;25.92;25.95
9521;BME280;4798;41.574;23.734;2023-03-19T11:23:59;95551.28;;;26.67;26.30
9521;BME280;4798;41.574;23.734;2023-03-19T11:26:29;95543.97;;;25.99;25.87
9521;BME280;4798;41.574;23.734;2023-03-19T11:29:02;95545.41;;;25.32;26.65
9521;BME280;4798;41.574;23.734;2023-03-19T11:31:36;95542.19;;;26.29;29.02
9521;BME280;4798;41.574;23.734;2023-03-19T11:34:19;95526.38;;;26.87;25.80
9521;BME280;4798;41.574;23.734;2023-03-19T11:36:57;95524.09;;;26.67;25.71
9521;BME280;4798;41.574;23.734;2023-03-19T11:39:36;95512.59;;;26.24;25.65
9521;BME280;4798;41.574;23.734;2023-03-19T11:42:31;95504.97;;;26.60;25.54
9521;BME280;4798;41.574;23.734;2023-03-19T11:45:11;95504.84;;;24.66;26.88
9521;BME280;4798;41.574;23.734;2023-03-19T11:47:49;95499.38;;;26.00;27.08
9521;BME280;4798;41.574;23.734;2023-03-19T11:50:25;95498.75;;;27.45;24.84
9521;BME280;4798;41.574;23.734;2023-03-19T11:53:06;95508.91;;;25.91;25.78
9521;BME280;4798;41.574;23.734;2023-03-19T11:55:40;95479.72;;;26.59;26.68
9521;BME280;4798;41.574;23.734;2023-03-19T12:01:15;95467.94;;;27.74;25.95
9521;BME280;4798;41.574;23.734;2023-03-19T12:03:57;95471.78;;;27.03;24.76
9521;BME280;4798;41.574;23.734;2023-03-19T12:06:38;95466.44;;;27.80;24.39
9521;BME280;4798;41.574;23.734;2023-03-19T12:09:18;95466.28;;;26.70;25.10
9521;BME280;4798;41.574;23.734;2023-03-19T12:11:52;95457.00;;;27.34;25.71
9521;BME280;4798;41.574;23.734;2023-03-19T12:14:30;95458.00;;;27.96;25.46
9521;BME280;4798;41.574;23.734;2023-03-19T12:17:16;95444.41;;;27.99;25.48
9521;BME280;4798;41.574;23.734;2023-03-19T12:20:03;95453.13;;;27.35;25.16
9521;BME280;4798;41.574;23.734;2023-03-19T12:22:44;95441.25;;;26.87;25.13
9521;BME280;4798;41.574;23.734;2023-03-19T12:25:25;95456.31;;;27.81;24.70
9521;BME280;4798;41.574;23.734;2023-03-19T12:28:01;95446.72;;;28.41;24.19
9521;BME280;4798;41.574;23.734;2023-03-19T12:30:38;95440.63;;;26.97;25.16
9521;BME280;4798;41.574;23.734;2023-03-19T12:33:23;95440.09;;;26.32;24.81
9521;BME280;4798;41.574;23.734;2023-03-19T12:35:57;95430.88;;;27.62;24.94
9521;BME280;4798;41.574;23.734;2023-03-19T12:38:30;95426.59;;;28.09;23.53
9521;BME280;4798;41.574;23.734;2023-03-19T12:41:06;95423.47;;;27.63;24.16
9521;BME280;4798;41.574;23.734;2023-03-19T12:43:43;95411.47;;;27.67;25.13
9521;BME280;4798;41.574;23.734;2023-03-19T12:46:21;95409.63;;;27.82;25.20
9521;BME280;4798;41.574;23.734;2023-03-19T12:48:53;95404.41;;;28.07;24.98
9521;BME280;4798;41.574;23.734;2023-03-19T12:51:26;95395.25;;;28.36;25.07
9521;BME280;4798;41.574;23.734;2023-03-19T12:53:59;95388.03;;;27.19;24.32
9521;BME280;4798;41.574;23.734;2023-03-19T12:56:34;95390.84;;;26.63;24.48
9521;BME280;4798;41.574;23.734;2023-03-19T12:59:10;95377.13;;;26.26;24.99
9521;BME280;4798;41.574;23.734;2023-03-19T13:01:45;95377.78;;;27.42;24.21
9521;BME280;4798;41.574;23.734;2023-03-19T13:04:18;95377.03;;;27.93;23.84
9521;BME280;4798;41.574;23.734;2023-03-19T13:06:51;95363.88;;;28.02;22.81
9521;BME280;4798;41.574;23.734;2023-03-19T13:09:26;95373.22;;;27.17;23.75
9521;BME280;4798;41.574;23.734;2023-03-19T13:12:00;95369.47;;;28.26;23.57
9521;BME280;4798;41.574;23.734;2023-03-19T13:14:37;95362.59;;;27.85;23.96
9521;BME280;4798;41.574;23.734;2023-03-19T13:17:13;95357.16;;;28.50;23.46
9521;BME280;4798;41.574;23.734;2023-03-19T13:19:48;95252.50;;;27.97;22.28
9521;BME280;4798;41.574;23.734;2023-03-19T13:22:21;95317.91;;;28.65;22.31
9521;BME280;4798;41.574;23.734;2023-03-19T13:24:51;95353.03;;;28.84;21.49
9521;BME280;4798;41.574;23.734;2023-03-19T13:27:22;95330.09;;;26.82;22.84
9521;BME280;4798;41.574;23.734;2023-03-19T13:30:17;95347.72;;;27.32;22.90
9521;BME280;4798;41.574;23.734;2023-03-19T13:32:48;95297.78;;;28.19;22.44
9521;BME280;4798;41.574;23.734;2023-03-19T13:35:31;95340.56;;;28.08;22.73
9521;BME280;4798;41.574;23.734;2023-03-19T13:38:06;95328.09;;;27.12;22.13
9521;BME280;4798;41.574;23.734;2023-03-19T13:40:47;95326.16;;;26.46;22.10